sensor_id;sensor_type;location;lat;lon;timestamp;pressure;altitude;pressure_sealevel;temperature;humidity
68456;BME280;55437;55.046;38.838;2023-06-10T00:00:42;100288.38;;;13.77;63.06
68456;BME280;55437;55.046;38.838;2023-06-10T00:03:08;100286.75;;;13.75;63.07
68456;BME280;55437;55.046;38.838;2023-06-10T00:05:35;100285.13;;;13.72;63.26
68456;BME280;55437;55.046;38.838;2023-06-10T00:08:02;100282.56;;;13.72;63.16
68456;BME280;55437;55.046;38.838;2023-06-10T00:10:37;100283.34;;;13.74;63.17
68456;BME280;55437;55.046;38.838;2023-06-10T00:13:05;100285.94;;;13.74;62.75
68456;BME280;55437;55.046;38.838;2023-06-10T00:15:34;100278.19;;;13.74;62.75
68456;BME280;55437;55.046;38.838;2023-06-10T00:18:02;100290.34;;;13.70;62.81
68456;BME280;55437;55.046;38.838;2023-06-10T00:20:30;100274.03;;;13.70;62.68
68456;BME280;55437;55.046;38.838;2023-06-10T00:22:57;100274.28;;;13.64;62.69
68456;BME280;55437;55.046;38.838;2023-06-10T00:25:26;100274.44;;;13.59;62.32
68456;BME280;55437;55.046;38.838;2023-06-10T00:27:53;100270.41;;;13.52;62.22
68456;BME280;55437;55.046;38.838;2023-06-10T00:30:20;100270.66;;;13.45;62.10
68456;BME280;55437;55.046;38.838;2023-06-10T00:32:47;100276.78;;;13.42;61.75
68456;BME280;55437;55.046;38.838;2023-06-10T00:35:13;100277.00;;;13.36;61.39
68456;BME280;55437;55.046;38.838;2023-06-10T00:37:39;100278.81;;;13.34;61.21
68456;BME280;55437;55.046;38.838;2023-06-10T00:40:06;100281.47;;;13.31;60.34
68456;BME280;55437;55.046;38.838;2023-06-10T00:42:34;100273.88;;;13.28;60.16
68456;BME280;55437;55.046;38.838;2023-06-10T00:45:00;100285.97;;;13.26;59.98
68456;BME280;55437;55.046;38.838;2023-06-10T00:47:27;100294.56;;;13.26;59.58
68456;BME280;55437;55.046;38.838;2023-06-10T00:49:53;100280.81;;;13.26;58.90
68456;BME280;55437;55.046;38.838;2023-06-10T00:52:21;100286.66;;;13.31;58.60
68456;BME280;55437;55.046;38.838;2023-06-10T00:54:48;100289.84;;;13.38;58.01
68456;BME280;55437;55.046;38.838;2023-06-10T00:57:15;100288.34;;;13.55;57.22
68456;BME280;55437;55.046;38.838;2023-06-10T00:59:44;100294.66;;;13.70;56.55
68456;BME280;55437;55.046;38.838;2023-06-10T01:02:14;100301.09;;;13.82;55.86
68456;BME280;55437;55.046;38.838;2023-06-10T01:04:40;100298.22;;;13.89;55.95
68456;BME280;55437;55.046;38.838;2023-06-10T01:07:38;100294.94;;;13.86;55.87
68456;BME280;55437;55.046;38.838;2023-06-10T01:12:46;100295.66;;;13.66;55.78
68456;BME280;55437;55.046;38.838;2023-06-10T01:15:16;100302.81;;;13.59;55.89
68456;BME280;55437;55.046;38.838;2023-06-10T01:20:19;100308.75;;;13.61;55.70
68456;BME280;55437;55.046;38.838;2023-06-10T01:22:45;100308.88;;;13.58;55.88
68456;BME280;55437;55.046;38.838;2023-06-10T01:25:11;100310.06;;;13.50;56.00
68456;BME280;55437;55.046;38.838;2023-06-10T01:27:38;100313.47;;;13.50;55.94
68456;BME280;55437;55.046;38.838;2023-06-10T01:30:12;100309.41;;;13.43;56.05
68456;BME280;55437;55.046;38.838;2023-06-10T01:33:29;100316.50;;;13.38;56.32
68456;BME280;55437;55.046;38.838;2023-06-10T01:40:00;100318.03;;;13.42;56.14
68456;BME280;55437;55.046;38.838;2023-06-10T01:42:32;100330.22;;;13.39;56.29
68456;BME280;55437;55.046;38.838;2023-06-10T01:44:58;100330.22;;;13.39;56.28
68456;BME280;55437;55.046;38.838;2023-06-10T01:47:25;100329.34;;;13.40;55.74
68456;BME280;55437;55.046;38.838;2023-06-10T01:49:51;100327.88;;;13.56;55.83
68456;BME280;55437;55.046;38.838;2023-06-10T01:52:35;100331.75;;;13.67;55.26
68456;BME280;55437;55.046;38.838;2023-06-10T01:55:00;100340.88;;;13.53;55.37
68456;BME280;55437;55.046;38.838;2023-06-10T01:57:28;100334.91;;;13.52;55.08
68456;BME280;55437;55.046;38.838;2023-06-10T02:00:13;100348.63;;;13.53;54.97
68456;BME280;55437;55.046;38.838;2023-06-10T02:02:41;100345.94;;;13.56;54.94
68456;BME280;55437;55.046;38.838;2023-06-10T02:05:07;100343.94;;;13.64;54.82
68456;BME280;55437;55.046;38.838;2023-06-10T02:07:33;100350.88;;;13.85;54.30
68456;BME280;55437;55.046;38.838;2023-06-10T02:09:59;100352.09;;;14.65;52.35
68456;BME280;55437;55.046;38.838;2023-06-10T02:12:31;100348.47;;;15.50;50.27
68456;BME280;55437;55.046;38.838;2023-06-10T02:14:57;100348.53;;;16.43;48.38
68456;BME280;55437;55.046;38.838;2023-06-10T02:17:23;100352.91;;;17.13;46.85
68456;BME280;55437;55.046;38.838;2023-06-10T02:20:09;100354.94;;;17.74;45.33
68456;BME280;55437;55.046;38.838;2023-06-10T02:22:36;100358.13;;;18.26;44.23
68456;BME280;55437;55.046;38.838;2023-06-10T02:25:03;100363.97;;;18.77;42.79
68456;BME280;55437;55.046;38.838;2023-06-10T02:27:30;100373.81;;;18.72;42.21
68456;BME280;55437;55.046;38.838;2023-06-10T02:30:00;100380.66;;;18.73;42.63
68456;BME280;55437;55.046;38.838;2023-06-10T02:32:30;100389.44;;;18.86;42.46
68456;BME280;55437;55.046;38.838;2023-06-10T02:34:56;100392.94;;;19.00;42.18
68456;BME280;55437;55.046;38.838;2023-06-10T02:37:24;100388.81;;;18.51;42.67
68456;BME280;55437;55.046;38.838;2023-06-10T02:39:51;100393.38;;;17.67;43.69
68456;BME280;55437;55.046;38.838;2023-06-10T02:42:16;100387.19;;;17.70;44.11
68456;BME280;55437;55.046;38.838;2023-06-10T02:44:42;100397.72;;;17.67;44.02
68456;BME280;55437;55.046;38.838;2023-06-10T02:47:13;100399.56;;;17.64;44.00
68456;BME280;55437;55.046;38.838;2023-06-10T02:49:39;100398.19;;;17.57;44.25
68456;BME280;55437;55.046;38.838;2023-06-10T02:52:06;100404.19;;;17.25;45.08
68456;BME280;55437;55.046;38.838;2023-06-10T02:54:33;100407.00;;;16.86;45.69
68456;BME280;55437;55.046;38.838;2023-06-10T02:57:00;100413.59;;;16.55;46.15
68456;BME280;55437;55.046;38.838;2023-06-10T02:59:28;100405.84;;;16.37;46.83
68456;BME280;55437;55.046;38.838;2023-06-10T03:01:54;100402.09;;;16.25;47.21
68456;BME280;55437;55.046;38.838;2023-06-10T03:04:21;100397.66;;;16.46;46.65
68456;BME280;55437;55.046;38.838;2023-06-10T03:06:57;100406.66;;;16.92;46.06
68456;BME280;55437;55.046;38.838;2023-06-10T03:09:30;100411.16;;;17.57;44.56
68456;BME280;55437;55.046;38.838;2023-06-10T03:11:58;100413.91;;;18.20;43.76
68456;BME280;55437;55.046;38.838;2023-06-10T03:14:25;100413.44;;;18.91;42.40
68456;BME280;55437;55.046;38.838;2023-06-10T03:16:51;100406.56;;;19.78;41.16
68456;BME280;55437;55.046;38.838;2023-06-10T03:19:19;100397.66;;;20.37;39.62
68456;BME280;55437;55.046;38.838;2023-06-10T03:22:06;100399.41;;;19.67;40.05
68456;BME280;55437;55.046;38.838;2023-06-10T03:24:32;100399.06;;;18.54;41.61
68456;BME280;55437;55.046;38.838;2023-06-10T03:26:58;100402.81;;;18.01;42.49
68456;BME280;55437;55.046;38.838;2023-06-10T03:29:24;100398.88;;;17.61;43.00
68456;BME280;55437;55.046;38.838;2023-06-10T03:31:50;100404.31;;;17.22;43.57
68456;BME280;55437;55.046;38.838;2023-06-10T03:34:16;100405.16;;;16.88;44.22
68456;BME280;55437;55.046;38.838;2023-06-10T03:36:42;100398.94;;;16.54;45.24
68456;BME280;55437;55.046;38.838;2023-06-10T03:39:09;100403.53;;;16.31;46.00
68456;BME280;55437;55.046;38.838;2023-06-10T03:41:35;100403.00;;;16.24;46.09
68456;BME280;55437;55.046;38.838;2023-06-10T03:44:02;100404.25;;;15.97;46.77
68456;BME280;55437;55.046;38.838;2023-06-10T03:46:29;100420.97;;;15.90;47.09
68456;BME280;55437;55.046;38.838;2023-06-10T03:48:55;100425.22;;;15.72;47.35
68456;BME280;55437;55.046;38.838;2023-06-10T03:51:22;100431.91;;;15.57;47.79
68456;BME280;55437;55.046;38.838;2023-06-10T03:53:49;100418.16;;;15.35;48.00
68456;BME280;55437;55.046;38.838;2023-06-10T03:56:15;100423.97;;;15.20;48.46
68456;BME280;55437;55.046;38.838;2023-06-10T03:58:41;100413.09;;;15.11;48.83
68456;BME280;55437;55.046;38.838;2023-06-10T04:01:07;100410.38;;;15.14;49.19
68456;BME280;55437;55.046;38.838;2023-06-10T04:03:34;100416.22;;;15.20;49.17
68456;BME280;55437;55.046;38.838;2023-06-10T04:06:00;100425.38;;;15.06;49.65
68456;BME280;55437;55.046;38.838;2023-06-10T04:08:26;100426.22;;;15.07;49.58
68456;BME280;55437;55.046;38.838;2023-06-10T04:10:53;100426.22;;;15.07;49.91
68456;BME280;55437;55.046;38.838;2023-06-10T04:13:19;100430.28;;;15.12;49.70
68456;BME280;55437;55.046;38.838;2023-06-10T04:15:53;100424.25;;;15.54;49.00
68456;BME280;55437;55.046;38.838;2023-06-10T04:18:20;100438.31;;;15.47;48.99
68456;BME280;55437;55.046;38.838;2023-06-10T04:20:47;100431.16;;;16.13;47.72
68456;BME280;55437;55.046;38.838;2023-06-10T04:23:14;100432.63;;;16.92;46.27
68456;BME280;55437;55.046;38.838;2023-06-10T04:25:42;100442.84;;;16.78;46.59
68456;BME280;55437;55.046;38.838;2023-06-10T04:28:08;100440.13;;;16.98;45.76
68456;BME280;55437;55.046;38.838;2023-06-10T04:30:35;100441.13;;;17.47;44.81
68456;BME280;55437;55.046;38.838;2023-06-10T04:33:02;100439.75;;;17.90;44.13
68456;BME280;55437;55.046;38.838;2023-06-10T04:35:28;100436.72;;;18.31;43.61
68456;BME280;55437;55.046;38.838;2023-06-10T04:37:58;100439.09;;;18.83;42.50
68456;BME280;55437;55.046;38.838;2023-06-10T04:40:24;100442.19;;;18.74;42.66
68456;BME280;55437;55.046;38.838;2023-06-10T04:42:50;100439.50;;;18.44;42.95
68456;BME280;55437;55.046;38.838;2023-06-10T04:45:15;100441.47;;;18.86;42.27
68456;BME280;55437;55.046;38.838;2023-06-10T04:47:45;100448.06;;;18.61;41.92
68456;BME280;55437;55.046;38.838;2023-06-10T04:50:11;100454.16;;;19.22;41.26
68456;BME280;55437;55.046;38.838;2023-06-10T04:52:36;100450.84;;;20.06;40.24
68456;BME280;55437;55.046;38.838;2023-06-10T04:55:03;100450.38;;;20.42;39.58
68456;BME280;55437;55.046;38.838;2023-06-10T04:57:30;100453.75;;;20.71;38.86
68456;BME280;55437;55.046;38.838;2023-06-10T04:59:56;100447.97;;;20.93;38.21
68456;BME280;55437;55.046;38.838;2023-06-10T05:02:22;100460.53;;;20.19;39.38
68456;BME280;55437;55.046;38.838;2023-06-10T05:04:48;100464.78;;;19.49;40.26
68456;BME280;55437;55.046;38.838;2023-06-10T05:07:14;100455.88;;;20.09;39.40
68456;BME280;55437;55.046;38.838;2023-06-10T05:12:26;100483.25;;;21.13;37.76
68456;BME280;55437;55.046;38.838;2023-06-10T05:14:52;100473.66;;;21.26;37.46
68456;BME280;55437;55.046;38.838;2023-06-10T05:17:17;100471.00;;;21.66;36.88
68456;BME280;55437;55.046;38.838;2023-06-10T05:19:43;100471.56;;;22.09;36.54
68456;BME280;55437;55.046;38.838;2023-06-10T05:22:09;100474.47;;;22.17;36.17
68456;BME280;55437;55.046;38.838;2023-06-10T05:24:54;100474.16;;;22.21;35.53
68456;BME280;55437;55.046;38.838;2023-06-10T05:27:20;100479.78;;;22.28;35.37
68456;BME280;55437;55.046;38.838;2023-06-10T05:30:05;100481.75;;;22.37;35.74
68456;BME280;55437;55.046;38.838;2023-06-10T05:32:34;100480.66;;;22.03;35.56
68456;BME280;55437;55.046;38.838;2023-06-10T05:34:59;100485.56;;;21.82;35.44
68456;BME280;55437;55.046;38.838;2023-06-10T05:37:26;100480.97;;;21.61;35.77
68456;BME280;55437;55.046;38.838;2023-06-10T05:39:55;100478.66;;;21.81;35.50
68456;BME280;55437;55.046;38.838;2023-06-10T05:42:21;100482.13;;;22.20;34.91
68456;BME280;55437;55.046;38.838;2023-06-10T05:44:47;100484.78;;;22.44;34.17
68456;BME280;55437;55.046;38.838;2023-06-10T05:47:13;100479.25;;;22.36;34.07
68456;BME280;55437;55.046;38.838;2023-06-10T05:49:39;100484.91;;;22.30;33.41
68456;BME280;55437;55.046;38.838;2023-06-10T05:52:05;100475.34;;;22.54;33.04
68456;BME280;55437;55.046;38.838;2023-06-10T05:54:31;100475.53;;;22.51;32.87
68456;BME280;55437;55.046;38.838;2023-06-10T05:56:57;100476.50;;;22.74;32.67
68456;BME280;55437;55.046;38.838;2023-06-10T05:59:23;100483.81;;;23.29;31.96
68456;BME280;55437;55.046;38.838;2023-06-10T06:01:49;100482.06;;;23.76;31.39
68456;BME280;55437;55.046;38.838;2023-06-10T06:04:16;100478.47;;;24.44;30.73
68456;BME280;55437;55.046;38.838;2023-06-10T06:06:42;100484.25;;;24.81;30.32
68456;BME280;55437;55.046;38.838;2023-06-10T06:09:08;100490.03;;;24.63;30.13
68456;BME280;55437;55.046;38.838;2023-06-10T06:11:34;100490.88;;;24.41;30.04
68456;BME280;55437;55.046;38.838;2023-06-10T06:14:01;100485.03;;;24.16;30.66
68456;BME280;55437;55.046;38.838;2023-06-10T06:16:27;100488.41;;;24.29;30.43
68456;BME280;55437;55.046;38.838;2023-06-10T06:18:53;100486.38;;;24.32;29.85
68456;BME280;55437;55.046;38.838;2023-06-10T06:21:18;100493.19;;;24.35;29.53
68456;BME280;55437;55.046;38.838;2023-06-10T06:26:28;100505.91;;;24.62;28.96
68456;BME280;55437;55.046;38.838;2023-06-10T06:28:54;100497.28;;;24.71;28.76
68456;BME280;55437;55.046;38.838;2023-06-10T06:31:20;100504.31;;;24.93;28.31
68456;BME280;55437;55.046;38.838;2023-06-10T06:33:46;100507.19;;;25.22;28.00
68456;BME280;55437;55.046;38.838;2023-06-10T06:36:12;100507.50;;;25.49;27.98
68456;BME280;55437;55.046;38.838;2023-06-10T06:38:38;100507.72;;;25.57;27.92
68456;BME280;55437;55.046;38.838;2023-06-10T06:41:04;100512.22;;;25.66;27.95
68456;BME280;55437;55.046;38.838;2023-06-10T06:43:32;100511.03;;;26.01;27.50
68456;BME280;55437;55.046;38.838;2023-06-10T06:46:07;100515.72;;;25.35;27.70
68456;BME280;55437;55.046;38.838;2023-06-10T06:48:32;100508.28;;;25.72;27.36
68456;BME280;55437;55.046;38.838;2023-06-10T06:50:58;100511.75;;;26.03;27.02
68456;BME280;55437;55.046;38.838;2023-06-10T06:53:24;100508.63;;;25.88;26.82
68456;BME280;55437;55.046;38.838;2023-06-10T06:56:09;100515.81;;;25.44;26.27
68456;BME280;55437;55.046;38.838;2023-06-10T06:58:35;100515.69;;;25.67;26.06
68456;BME280;55437;55.046;38.838;2023-06-10T07:01:01;100511.34;;;26.07;26.06
68456;BME280;55437;55.046;38.838;2023-06-10T07:03:27;100514.47;;;24.75;27.46
68456;BME280;55437;55.046;38.838;2023-06-10T07:05:53;100505.09;;;25.04;26.77
68456;BME280;55437;55.046;38.838;2023-06-10T07:08:21;100515.81;;;25.86;26.31
68456;BME280;55437;55.046;38.838;2023-06-10T07:10:47;100517.31;;;26.40;25.85
68456;BME280;55437;55.046;38.838;2023-06-10T07:13:12;100523.75;;;26.57;25.55
68456;BME280;55437;55.046;38.838;2023-06-10T07:15:39;100530.25;;;27.02;24.76
68456;BME280;55437;55.046;38.838;2023-06-10T07:18:05;100525.63;;;26.35;25.26
68456;BME280;55437;55.046;38.838;2023-06-10T07:20:31;100523.59;;;26.48;25.03
68456;BME280;55437;55.046;38.838;2023-06-10T07:22:57;100523.47;;;25.99;25.56
68456;BME280;55437;55.046;38.838;2023-06-10T07:25:22;100533.81;;;24.74;27.06
68456;BME280;55437;55.046;38.838;2023-06-10T07:27:49;100533.81;;;24.74;26.87
68456;BME280;55437;55.046;38.838;2023-06-10T07:30:15;100529.38;;;24.97;26.25
68456;BME280;55437;55.046;38.838;2023-06-10T07:32:44;100534.81;;;25.37;25.72
68456;BME280;55437;55.046;38.838;2023-06-10T07:35:10;100532.97;;;25.80;24.98
68456;BME280;55437;55.046;38.838;2023-06-10T07:37:37;100537.72;;;26.17;24.65
68456;BME280;55437;55.046;38.838;2023-06-10T07:40:03;100528.84;;;26.48;24.24
68456;BME280;55437;55.046;38.838;2023-06-10T07:42:35;100529.81;;;26.47;24.44
68456;BME280;55437;55.046;38.838;2023-06-10T07:45:04;100531.25;;;26.61;24.03
68456;BME280;55437;55.046;38.838;2023-06-10T07:47:33;100537.53;;;26.79;22.91
68456;BME280;55437;55.046;38.838;2023-06-10T07:50:00;100533.47;;;26.56;23.39
68456;BME280;55437;55.046;38.838;2023-06-10T07:52:26;100539.13;;;26.51;23.83
68456;BME280;55437;55.046;38.838;2023-06-10T07:54:52;100543.06;;;26.67;23.35
68456;BME280;55437;55.046;38.838;2023-06-10T07:57:19;100531.81;;;26.65;23.98
68456;BME280;55437;55.046;38.838;2023-06-10T07:59:44;100544.00;;;26.56;24.46
68456;BME280;55437;55.046;38.838;2023-06-10T08:02:10;100542.66;;;26.81;24.41
68456;BME280;55437;55.046;38.838;2023-06-10T08:04:36;100550.25;;;27.14;24.33
68456;BME280;55437;55.046;38.838;2023-06-10T08:07:02;100551.47;;;26.61;23.85
68456;BME280;55437;55.046;38.838;2023-06-10T08:09:28;100555.47;;;26.25;23.73
68456;BME280;55437;55.046;38.838;2023-06-10T08:11:54;100540.94;;;26.61;23.91
68456;BME280;55437;55.046;38.838;2023-06-10T08:14:24;100548.38;;;26.15;23.94
68456;BME280;55437;55.046;38.838;2023-06-10T08:16:50;100552.75;;;25.84;24.05
68456;BME280;55437;55.046;38.838;2023-06-10T08:19:15;100553.53;;;25.23;24.60
68456;BME280;55437;55.046;38.838;2023-06-10T08:21:41;100564.97;;;25.33;24.29
68456;BME280;55437;55.046;38.838;2023-06-10T08:24:25;100551.38;;;24.40;25.04
68456;BME280;55437;55.046;38.838;2023-06-10T08:26:51;100566.38;;;23.34;26.14
68456;BME280;55437;55.046;38.838;2023-06-10T08:29:17;100563.13;;;22.83;26.84
68456;BME280;55437;55.046;38.838;2023-06-10T08:31:44;100556.94;;;23.08;27.38
68456;BME280;55437;55.046;38.838;2023-06-10T08:34:10;100557.59;;;23.47;26.75
68456;BME280;55437;55.046;38.838;2023-06-10T08:36:36;100568.63;;;23.98;26.26
68456;BME280;55437;55.046;38.838;2023-06-10T08:39:02;100566.44;;;24.27;26.12
68456;BME280;55437;55.046;38.838;2023-06-10T08:41:30;100569.38;;;24.11;26.41
68456;BME280;55437;55.046;38.838;2023-06-10T08:46:45;100567.00;;;23.14;26.75
68456;BME280;55437;55.046;38.838;2023-06-10T08:49:17;100562.13;;;22.97;27.24
68456;BME280;55437;55.046;38.838;2023-06-10T08:51:45;100565.34;;;22.77;27.21
68456;BME280;55437;55.046;38.838;2023-06-10T08:54:17;100569.34;;;22.57;27.89
68456;BME280;55437;55.046;38.838;2023-06-10T08:56:48;100566.84;;;21.52;29.91
68456;BME280;55437;55.046;38.838;2023-06-10T08:59:15;100555.50;;;20.85;31.07
68456;BME280;55437;55.046;38.838;2023-06-10T09:01:43;100557.41;;;20.55;31.59
68456;BME280;55437;55.046;38.838;2023-06-10T09:04:12;100558.16;;;20.43;32.13
68456;BME280;55437;55.046;38.838;2023-06-10T09:06:38;100563.63;;;20.67;31.81
68456;BME280;55437;55.046;38.838;2023-06-10T09:09:06;100551.31;;;20.83;31.37
68456;BME280;55437;55.046;38.838;2023-06-10T09:11:33;100564.13;;;20.59;31.49
68456;BME280;55437;55.046;38.838;2023-06-10T09:13:59;100551.16;;;20.43;31.46
68456;BME280;55437;55.046;38.838;2023-06-10T09:16:25;100548.06;;;20.65;31.30
68456;BME280;55437;55.046;38.838;2023-06-10T09:18:51;100557.22;;;20.58;30.98
68456;BME280;55437;55.046;38.838;2023-06-10T09:21:22;100552.00;;;20.16;31.48
68456;BME280;55437;55.046;38.838;2023-06-10T09:23:48;100550.03;;;20.33;31.41
68456;BME280;55437;55.046;38.838;2023-06-10T09:26:14;100559.06;;;20.13;31.70
68456;BME280;55437;55.046;38.838;2023-06-10T09:28:46;100558.66;;;20.05;31.66
68456;BME280;55437;55.046;38.838;2023-06-10T09:31:14;100568.56;;;20.14;31.61
68456;BME280;55437;55.046;38.838;2023-06-10T09:33:44;100556.06;;;20.20;31.59
68456;BME280;55437;55.046;38.838;2023-06-10T09:36:10;100567.75;;;20.28;31.31
68456;BME280;55437;55.046;38.838;2023-06-10T09:38:38;100575.28;;;20.04;31.01
68456;BME280;55437;55.046;38.838;2023-06-10T09:41:06;100564.19;;;20.15;30.89
68456;BME280;55437;55.046;38.838;2023-06-10T09:43:43;100567.66;;;20.16;31.61
68456;BME280;55437;55.046;38.838;2023-06-10T09:46:17;100579.81;;;19.71;32.25
68456;BME280;55437;55.046;38.838;2023-06-10T09:48:45;100572.47;;;19.48;32.63
68456;BME280;55437;55.046;38.838;2023-06-10T09:51:12;100570.78;;;19.47;32.29
68456;BME280;55437;55.046;38.838;2023-06-10T09:53:39;100570.53;;;19.67;32.09
68456;BME280;55437;55.046;38.838;2023-06-10T09:56:05;100558.75;;;19.90;31.46
68456;BME280;55437;55.046;38.838;2023-06-10T09:58:36;100568.72;;;19.97;31.46
68456;BME280;55437;55.046;38.838;2023-06-10T10:01:09;100568.97;;;19.78;32.04
68456;BME280;55437;55.046;38.838;2023-06-10T10:03:51;100573.38;;;19.47;32.04
68456;BME280;55437;55.046;38.838;2023-06-10T10:06:19;100574.28;;;19.31;32.09
68456;BME280;55437;55.046;38.838;2023-06-10T10:08:47;100563.50;;;19.22;32.40
68456;BME280;55437;55.046;38.838;2023-06-10T10:11:19;100562.00;;;19.49;32.28
68456;BME280;55437;55.046;38.838;2023-06-10T10:13:48;100563.25;;;19.72;32.42
68456;BME280;55437;55.046;38.838;2023-06-10T10:16:17;100572.06;;;19.55;32.49
68456;BME280;55437;55.046;38.838;2023-06-10T10:18:49;100568.88;;;19.34;32.96
68456;BME280;55437;55.046;38.838;2023-06-10T10:21:25;100565.03;;;19.10;33.31
68456;BME280;55437;55.046;38.838;2023-06-10T10:26:26;100578.81;;;19.12;33.67
68456;BME280;55437;55.046;38.838;2023-06-10T10:31:32;100573.16;;;19.51;32.98
68456;BME280;55437;55.046;38.838;2023-06-10T10:34:03;100574.56;;;19.57;32.90
68456;BME280;55437;55.046;38.838;2023-06-10T10:36:31;100570.78;;;19.47;32.92
68456;BME280;55437;55.046;38.838;2023-06-10T10:38:57;100562.84;;;19.50;32.42
68456;BME280;55437;55.046;38.838;2023-06-10T10:41:25;100560.22;;;19.80;32.96
68456;BME280;55437;55.046;38.838;2023-06-10T10:43:52;100565.69;;;19.75;32.56
68456;BME280;55437;55.046;38.838;2023-06-10T10:46:19;100575.44;;;19.41;32.94
68456;BME280;55437;55.046;38.838;2023-06-10T10:48:45;100585.03;;;19.10;33.86
68456;BME280;55437;55.046;38.838;2023-06-10T10:51:11;100574.19;;;18.70;33.88
68456;BME280;55437;55.046;38.838;2023-06-10T10:53:38;100586.09;;;18.41;34.24
68456;BME280;55437;55.046;38.838;2023-06-10T10:56:09;100579.03;;;18.27;33.60
68456;BME280;55437;55.046;38.838;2023-06-10T10:58:38;100567.50;;;18.49;33.47
68456;BME280;55437;55.046;38.838;2023-06-10T11:01:11;100575.44;;;18.63;33.20
68456;BME280;55437;55.046;38.838;2023-06-10T11:03:44;100569.09;;;19.00;33.53
68456;BME280;55437;55.046;38.838;2023-06-10T11:06:18;100569.78;;;19.33;33.02
68456;BME280;55437;55.046;38.838;2023-06-10T11:11:24;100587.38;;;19.30;32.89
68456;BME280;55437;55.046;38.838;2023-06-10T11:14:10;100582.25;;;18.97;32.78
68456;BME280;55437;55.046;38.838;2023-06-10T11:16:42;100572.34;;;18.88;33.10
68456;BME280;55437;55.046;38.838;2023-06-10T11:19:09;100573.09;;;18.58;33.47
68456;BME280;55437;55.046;38.838;2023-06-10T11:22:07;100578.66;;;18.68;32.99
68456;BME280;55437;55.046;38.838;2023-06-10T11:24:35;100580.00;;;18.91;32.22
68456;BME280;55437;55.046;38.838;2023-06-10T11:27:19;100577.97;;;18.96;32.23
68456;BME280;55437;55.046;38.838;2023-06-10T11:30:00;100573.94;;;19.22;32.10
68456;BME280;55437;55.046;38.838;2023-06-10T11:32:43;100581.41;;;19.12;31.75
68456;BME280;55437;55.046;38.838;2023-06-10T11:35:09;100586.38;;;18.85;31.97
68456;BME280;55437;55.046;38.838;2023-06-10T11:37:35;100588.38;;;18.64;32.25
68456;BME280;55437;55.046;38.838;2023-06-10T11:40:02;100597.94;;;18.64;32.57
68456;BME280;55437;55.046;38.838;2023-06-10T11:42:30;100591.31;;;18.58;32.76
68456;BME280;55437;55.046;38.838;2023-06-10T11:44:56;100595.44;;;18.45;31.98
68456;BME280;55437;55.046;38.838;2023-06-10T11:47:22;100585.69;;;18.33;32.42
68456;BME280;55437;55.046;38.838;2023-06-10T11:49:56;100593.09;;;18.23;32.02
68456;BME280;55437;55.046;38.838;2023-06-10T11:52:31;100591.47;;;18.38;31.86
68456;BME280;55437;55.046;38.838;2023-06-10T11:55:00;100583.63;;;18.55;32.27
68456;BME280;55437;55.046;38.838;2023-06-10T11:57:26;100598.69;;;18.49;31.56
68456;BME280;55437;55.046;38.838;2023-06-10T11:59:53;100590.25;;;18.28;31.75
68456;BME280;55437;55.046;38.838;2023-06-10T12:02:19;100599.84;;;18.10;31.42
68456;BME280;55437;55.046;38.838;2023-06-10T12:04:45;100601.75;;;18.07;31.93
68456;BME280;55437;55.046;38.838;2023-06-10T12:07:18;100604.13;;;18.11;31.05
68456;BME280;55437;55.046;38.838;2023-06-10T12:09:45;100603.38;;;18.09;30.70
68456;BME280;55437;55.046;38.838;2023-06-10T12:12:11;100588.84;;;17.88;30.79
68456;BME280;55437;55.046;38.838;2023-06-10T12:19:56;100594.81;;;17.73;31.11
68456;BME280;55437;55.046;38.838;2023-06-10T12:22:22;100590.22;;;17.95;30.70
68456;BME280;55437;55.046;38.838;2023-06-10T12:24:59;100591.88;;;18.30;30.62
68456;BME280;55437;55.046;38.838;2023-06-10T12:27:54;100593.34;;;18.52;30.66
68456;BME280;55437;55.046;38.838;2023-06-10T12:30:22;100590.50;;;18.56;31.05
68456;BME280;55437;55.046;38.838;2023-06-10T12:32:49;100590.47;;;18.58;30.73
68456;BME280;55437;55.046;38.838;2023-06-10T12:35:23;100594.09;;;18.54;30.64
68456;BME280;55437;55.046;38.838;2023-06-10T12:40:34;100599.16;;;18.07;31.78
68456;BME280;55437;55.046;38.838;2023-06-10T12:43:02;100587.59;;;18.12;31.43
68456;BME280;55437;55.046;38.838;2023-06-10T12:45:33;100591.03;;;18.30;31.43
68456;BME280;55437;55.046;38.838;2023-06-10T12:50:33;100588.06;;;18.70;31.66
68456;BME280;55437;55.046;38.838;2023-06-10T12:52:59;100575.97;;;18.69;31.12
68456;BME280;55437;55.046;38.838;2023-06-10T12:55:26;100588.53;;;18.77;31.27
68456;BME280;55437;55.046;38.838;2023-06-10T12:57:52;100591.19;;;18.60;30.46
68456;BME280;55437;55.046;38.838;2023-06-10T13:00:18;100575.91;;;18.54;30.71
68456;BME280;55437;55.046;38.838;2023-06-10T13:02:44;100600.38;;;18.50;30.81
68456;BME280;55437;55.046;38.838;2023-06-10T13:05:10;100593.59;;;18.47;30.85
68456;BME280;55437;55.046;38.838;2023-06-10T13:07:36;100605.38;;;18.37;30.61
68456;BME280;55437;55.046;38.838;2023-06-10T13:10:02;100594.25;;;18.35;30.17
68456;BME280;55437;55.046;38.838;2023-06-10T13:12:29;100584.66;;;18.35;30.34
68456;BME280;55437;55.046;38.838;2023-06-10T13:14:56;100590.81;;;18.50;30.81
68456;BME280;55437;55.046;38.838;2023-06-10T13:17:22;100586.47;;;18.51;31.38
68456;BME280;55437;55.046;38.838;2023-06-10T13:19:47;100593.47;;;18.33;31.09
68456;BME280;55437;55.046;38.838;2023-06-10T13:22:14;100594.09;;;18.21;31.28